Time;durP1;ratioP1;P1;durP2;ratioP2;P2;SDS_P1;SDS_P2;PMS_P1;PMS_P2;Temp;Humidity;BMP_temperature;BMP_pressure;BME280_temperature;BME280_humidity;BME280_pressure;Samples;Min_cycle;Max_cycle;Signal;HPM_P1;HPM_P2
2023/04/20 00:00:16;;;;;;;7.03;3.90;;;8.20;99.90;;;;;;4985654;28;20398;-78
2023/04/20 00:02:42;;;;;;;4.70;3.40;;;8.20;99.90;;;;;;5010919;28;20041;-77
2023/04/20 00:05:11;;;;;;;5.17;3.50;;;8.30;99.90;;;;;;4986529;28;20034;-76
2023/04/20 00:07:37;;;;;;;5.30;3.93;;;8.30;99.90;;;;;;5016817;28;20436;-77
2023/04/20 00:10:03;;;;;;;5.87;3.50;;;8.30;99.90;;;;;;5002331;28;20045;-79
2023/04/20 00:12:29;;;;;;;5.90;3.57;;;8.30;99.90;;;;;;5007818;28;20069;-78
2023/04/20 00:14:55;;;;;;;5.10;3.73;;;8.20;99.90;;;;;;5013068;28;20073;-78
2023/04/20 00:17:21;;;;;;;5.00;3.60;;;8.30;99.90;;;;;;4975437;28;20177;-78
2023/04/20 00:19:46;;;;;;;7.77;3.60;;;8.30;99.90;;;;;;4991123;28;20084;-77
2023/04/20 00:22:12;;;;;;;4.03;3.10;;;8.30;99.90;;;;;;5013588;28;20034;-78
2023/04/20 00:24:39;;;;;;;4.70;3.27;;;8.40;99.90;;;;;;4991485;28;20125;-76
2023/04/20 00:27:05;;;;;;;5.53;3.50;;;8.40;99.90;;;;;;5018995;28;20094;-79
2023/04/20 00:29:31;;;;;;;6.20;3.30;;;8.40;99.90;;;;;;4994621;28;20042;-76
2023/04/20 00:31:57;;;;;;;5.20;2.90;;;8.40;99.90;;;;;;5013076;28;20146;-77
2023/04/20 00:34:22;;;;;;;4.67;3.27;;;8.40;99.90;;;;;;5012397;28;20069;-77
2023/04/20 00:36:48;;;;;;;5.37;3.00;;;8.40;99.90;;;;;;5007760;28;20046;-77
2023/04/20 00:39:14;;;;;;;9.53;3.50;;;8.40;99.90;;;;;;5018295;28;20034;-78
2023/04/20 00:41:41;;;;;;;5.13;3.57;;;8.40;99.90;;;;;;4996793;28;20116;-76
2023/04/20 00:44:10;;;;;;;5.70;3.30;;;8.40;99.90;;;;;;5012948;28;20036;-77
2023/04/20 00:46:36;;;;;;;4.60;3.13;;;8.40;99.90;;;;;;5007521;28;20050;-76
2023/04/20 00:49:02;;;;;;;5.10;3.07;;;8.40;99.90;;;;;;5008504;28;20045;-77
2023/04/20 00:51:28;;;;;;;8.87;3.60;;;8.40;99.90;;;;;;5005281;28;20064;-77
2023/04/20 00:53:54;;;;;;;5.43;3.03;;;8.40;99.90;;;;;;5009551;28;20432;-76
2023/04/20 00:56:20;;;;;;;6.87;3.17;;;8.40;99.90;;;;;;4990488;28;20058;-77
2023/04/20 00:58:46;;;;;;;6.43;2.93;;;8.50;99.90;;;;;;5007068;28;20050;-77
2023/04/20 01:01:16;;;;;;;4.80;2.80;;;8.50;99.90;;;;;;4970398;28;20074;-77
2023/04/20 01:03:42;;;;;;;5.83;2.93;;;8.50;99.90;;;;;;4980915;28;20048;-77
2023/04/20 01:06:08;;;;;;;6.60;3.20;;;8.50;99.90;;;;;;5005603;28;20046;-77
2023/04/20 01:08:34;;;;;;;4.53;2.77;;;8.50;99.90;;;;;;5009860;28;20038;-77
2023/04/20 01:11:00;;;;;;;4.37;3.37;;;8.50;99.90;;;;;;4988021;28;20097;-78
2023/04/20 01:13:25;;;;;;;4.63;2.83;;;8.50;99.90;;;;;;4978030;28;20038;-76
2023/04/20 01:15:51;;;;;;;6.03;3.40;;;8.50;99.90;;;;;;5009142;28;20042;-76
2023/04/20 01:18:18;;;;;;;4.03;3.00;;;8.50;99.90;;;;;;5012171;28;20124;-77
2023/04/20 01:20:45;;;;;;;5.30;3.37;;;8.50;99.90;;;;;;4989976;28;20065;-76
2023/04/20 01:23:11;;;;;;;4.53;2.60;;;8.50;99.90;;;;;;5012532;28;20042;-77
2023/04/20 01:25:37;;;;;;;5.40;3.13;;;8.50;99.90;;;;;;4996150;28;20409;-77
2023/04/20 01:28:03;;;;;;;4.93;3.10;;;8.60;99.90;;;;;;5015746;28;20092;-77
2023/04/20 01:30:30;;;;;;;4.23;2.87;;;8.60;99.90;;;;;;4990240;28;20136;-76
2023/04/20 01:32:56;;;;;;;5.47;2.80;;;8.60;99.90;;;;;;5007082;28;20045;-77
2023/04/20 01:35:21;;;;;;;6.77;3.17;;;8.60;99.90;;;;;;5009652;28;20037;-77
2023/04/20 01:37:47;;;;;;;3.13;2.80;;;8.60;99.90;;;;;;5011410;28;20063;-77
2023/04/20 01:40:13;;;;;;;5.03;2.70;;;8.60;99.90;;;;;;5003593;28;20044;-77
2023/04/20 01:42:39;;;;;;;6.37;3.20;;;8.60;99.90;;;;;;4995966;28;20053;-78
2023/04/20 01:45:07;;;;;;;4.10;2.60;;;8.60;99.90;;;;;;5006939;28;20038;-77
2023/04/20 01:47:33;;;;;;;6.03;3.13;;;8.60;99.90;;;;;;5007481;28;20042;-77
2023/04/20 01:49:59;;;;;;;7.33;3.30;;;8.60;99.90;;;;;;5009187;28;20049;-76
2023/04/20 01:52:25;;;;;;;5.10;2.80;;;8.60;99.90;;;;;;5006192;28;20111;-76
2023/04/20 01:54:50;;;;;;;6.37;3.30;;;8.60;99.90;;;;;;5003759;28;20410;-77
2023/04/20 01:57:16;;;;;;;7.00;3.20;;;8.60;99.90;;;;;;5013440;28;20060;-77
2023/04/20 01:59:42;;;;;;;6.20;3.33;;;8.50;99.90;;;;;;5002209;28;20443;-77
2023/04/20 02:02:07;;;;;;;5.00;3.23;;;8.50;99.90;;;;;;4978262;28;20066;-78
2023/04/20 02:04:33;;;;;;;4.90;3.10;;;8.50;99.90;;;;;;5008564;28;20050;-77
2023/04/20 02:06:59;;;;;;;4.87;2.80;;;8.50;99.90;;;;;;4993987;28;20042;-78
2023/04/20 02:09:25;;;;;;;4.97;2.80;;;8.50;99.90;;;;;;5004650;28;20120;-77
2023/04/20 02:11:50;;;;;;;6.23;2.83;;;8.50;99.90;;;;;;4998089;28;20042;-76
2023/04/20 02:14:16;;;;;;;5.17;3.03;;;8.50;99.90;;;;;;4993187;28;20088;-78
2023/04/20 02:16:42;;;;;;;6.97;2.90;;;8.50;99.90;;;;;;4985611;28;20087;-78
2023/04/20 02:19:08;;;;;;;4.83;2.77;;;8.50;99.90;;;;;;4969158;28;20038;-78
2023/04/20 02:21:34;;;;;;;4.87;3.00;;;8.50;99.90;;;;;;5007259;28;20045;-77
2023/04/20 02:24:00;;;;;;;9.20;3.07;;;8.50;99.90;;;;;;4989732;28;20059;-77
2023/04/20 02:26:26;;;;;;;4.27;2.67;;;8.50;99.90;;;;;;4971134;28;20490;-78
2023/04/20 02:28:52;;;;;;;5.87;2.70;;;8.50;99.90;;;;;;4999691;28;20042;-76
2023/04/20 02:31:17;;;;;;;5.33;2.73;;;8.50;99.90;;;;;;4994664;28;20042;-78
2023/04/20 02:33:43;;;;;;;4.83;2.77;;;8.50;99.90;;;;;;5012255;28;20041;-77
2023/04/20 02:36:09;;;;;;;5.13;3.03;;;8.40;99.90;;;;;;5004478;28;20073;-76
2023/04/20 02:38:36;;;;;;;5.17;3.50;;;8.40;99.90;;;;;;5013325;28;20042;-78
2023/04/20 02:41:02;;;;;;;6.87;3.40;;;8.40;99.90;;;;;;4989218;28;20820;-77
2023/04/20 02:43:28;;;;;;;5.00;2.83;;;8.40;99.90;;;;;;5012961;28;20033;-78
2023/04/20 02:45:55;;;;;;;3.60;2.90;;;8.30;99.90;;;;;;5009259;28;20041;-76
2023/04/20 02:48:20;;;;;;;6.20;3.37;;;8.30;99.90;;;;;;5005781;28;20593;-77
2023/04/20 02:50:46;;;;;;;6.53;3.17;;;8.30;99.90;;;;;;5004922;28;20037;-77
2023/04/20 02:53:12;;;;;;;4.97;2.80;;;8.30;99.90;;;;;;4971192;28;20125;-76
2023/04/20 02:55:37;;;;;;;4.83;3.00;;;8.30;99.90;;;;;;4961071;28;20038;-77
2023/04/20 02:58:04;;;;;;;4.83;3.10;;;8.30;99.90;;;;;;4991897;28;20130;-76
2023/04/20 03:00:30;;;;;;;5.77;3.00;;;8.30;99.90;;;;;;4993052;28;20104;-76
2023/04/20 03:02:56;;;;;;;5.40;2.80;;;8.20;99.90;;;;;;4980519;28;20037;-77
2023/04/20 03:05:22;;;;;;;3.30;2.60;;;8.20;99.90;;;;;;4992885;28;20725;-76
2023/04/20 03:07:47;;;;;;;6.23;2.77;;;8.30;99.90;;;;;;4992743;28;20052;-78
2023/04/20 03:10:16;;;;;;;6.57;3.13;;;8.30;99.90;;;;;;4959890;28;20060;-77
2023/04/20 03:12:42;;;;;;;5.30;3.10;;;8.30;99.90;;;;;;4962970;28;20038;-77
2023/04/20 03:15:08;;;;;;;5.20;3.00;;;8.20;99.90;;;;;;4992211;28;20045;-77
2023/04/20 03:17:34;;;;;;;8.03;2.93;;;8.30;99.90;;;;;;4991858;28;20053;-77
2023/04/20 03:20:00;;;;;;;7.17;3.20;;;8.30;99.90;;;;;;4978639;28;20034;-77
2023/04/20 03:22:26;;;;;;;4.87;2.83;;;8.30;99.90;;;;;;4975813;28;20077;-76
2023/04/20 03:24:51;;;;;;;4.00;2.93;;;8.40;99.90;;;;;;4993631;28;20034;-77
2023/04/20 03:27:17;;;;;;;5.13;3.20;;;8.50;99.90;;;;;;4999065;28;20086;-77
2023/04/20 03:29:43;;;;;;;6.80;2.83;;;8.50;99.90;;;;;;4992726;28;20116;-78
2023/04/20 03:32:09;;;;;;;6.00;2.97;;;8.50;99.90;;;;;;4977083;28;20074;-76
2023/04/20 03:34:35;;;;;;;4.50;2.67;;;8.60;99.90;;;;;;4992624;28;20037;-76
2023/04/20 03:37:01;;;;;;;4.80;2.73;;;8.60;99.90;;;;;;4993309;28;20042;-76
2023/04/20 03:39:27;;;;;;;5.13;2.80;;;8.60;99.90;;;;;;4991526;28;20049;-76
2023/04/20 03:41:53;;;;;;;6.27;2.80;;;8.60;99.90;;;;;;4993951;28;20082;-77
2023/04/20 03:44:18;;;;;;;3.97;2.80;;;8.50;99.90;;;;;;4961391;28;20166;-77
2023/04/20 03:46:44;;;;;;;3.83;2.83;;;8.50;99.90;;;;;;4975598;28;20042;-77
2023/04/20 03:49:10;;;;;;;4.00;3.00;;;8.50;99.90;;;;;;4993989;28;20042;-77
2023/04/20 03:51:35;;;;;;;3.93;2.80;;;8.50;99.90;;;;;;4999889;28;20042;-76
2023/04/20 03:54:01;;;;;;;7.27;3.27;;;8.50;99.90;;;;;;4999953;28;20128;-79
2023/04/20 03:56:27;;;;;;;4.67;2.90;;;8.40;99.90;;;;;;4987150;28;20529;-77
2023/04/20 03:58:53;;;;;;;5.10;3.20;;;8.40;99.90;;;;;;4984386;28;20447;-77
2023/04/20 04:01:18;;;;;;;5.80;3.13;;;8.40;99.90;;;;;;5011364;28;20052;-76
2023/04/20 04:03:44;;;;;;;4.63;2.80;;;8.30;99.90;;;;;;4977553;28;20056;-78
2023/04/20 04:06:10;;;;;;;7.60;3.20;;;8.30;99.90;;;;;;4987471;28;20147;-77
2023/04/20 04:08:36;;;;;;;4.87;3.07;;;8.20;99.90;;;;;;5017981;28;20045;-76
2023/04/20 04:11:01;;;;;;;3.60;2.87;;;8.10;99.90;;;;;;4991287;28;20053;-76
2023/04/20 04:13:28;;;;;;;7.27;3.23;;;8.00;99.90;;;;;;4991817;28;20144;-76
2023/04/20 04:15:54;;;;;;;5.63;2.97;;;8.00;99.90;;;;;;5012616;28;20121;-78
2023/04/20 04:18:20;;;;;;;4.97;3.07;;;7.90;99.90;;;;;;5005945;28;20189;-78
2023/04/20 04:20:46;;;;;;;6.43;3.17;;;7.80;99.90;;;;;;5004358;28;20427;-77
2023/04/20 04:23:12;;;;;;;5.13;3.20;;;7.80;99.90;;;;;;4981882;28;20135;-77
2023/04/20 04:25:39;;;;;;;6.73;3.43;;;7.70;99.90;;;;;;5008832;28;20045;-77
2023/04/20 04:28:05;;;;;;;4.63;3.10;;;7.60;99.90;;;;;;4979088;28;20046;-77
2023/04/20 04:30:31;;;;;;;5.43;3.53;;;7.50;99.90;;;;;;4998740;28;20042;-76
2023/04/20 04:32:58;;;;;;;7.80;3.43;;;7.40;99.90;;;;;;5009313;28;20034;-76
2023/04/20 04:35:24;;;;;;;6.37;3.90;;;7.30;99.90;;;;;;4999145;28;20042;-77
2023/04/20 04:37:51;;;;;;;7.17;3.70;;;7.30;99.90;;;;;;5006376;28;20050;-77
2023/04/20 04:40:17;;;;;;;6.03;3.40;;;7.20;99.90;;;;;;4993993;28;20050;-76
2023/04/20 04:42:44;;;;;;;4.23;3.07;;;7.20;99.90;;;;;;5008934;28;20049;-76
2023/04/20 04:45:10;;;;;;;4.63;3.20;;;7.20;99.90;;;;;;5009730;28;20045;-77
2023/04/20 04:47:36;;;;;;;4.50;3.73;;;7.20;99.90;;;;;;4991474;28;20097;-77
2023/04/20 04:50:03;;;;;;;5.73;3.40;;;7.20;99.90;;;;;;4991607;28;20128;-76
2023/04/20 04:52:29;;;;;;;7.77;3.33;;;7.10;99.90;;;;;;5008369;28;20120;-78
2023/04/20 04:54:57;;;;;;;4.97;3.47;;;7.10;99.90;;;;;;5008406;28;20060;-76
2023/04/20 04:57:22;;;;;;;5.33;3.53;;;7.10;99.90;;;;;;4990689;28;20133;-78
2023/04/20 04:59:48;;;;;;;7.07;3.60;;;7.10;99.90;;;;;;5006596;28;20077;-77
2023/04/20 05:02:14;;;;;;;6.20;3.60;;;7.10;99.90;;;;;;4990377;28;20041;-77
2023/04/20 05:04:40;;;;;;;4.80;2.97;;;7.10;99.90;;;;;;5008629;28;20034;-76
2023/04/20 05:07:06;;;;;;;3.80;3.10;;;7.10;99.90;;;;;;4974661;28;20489;-76
2023/04/20 05:09:32;;;;;;;5.73;3.20;;;7.10;99.90;;;;;;5004662;28;20052;-77
2023/04/20 05:12:02;;;;;;;5.23;3.13;;;7.10;99.90;;;;;;4994482;28;20443;-76
2023/04/20 05:14:30;;;;;;;4.57;3.10;;;7.10;99.90;;;;;;5030804;28;20041;-76
2023/04/20 05:16:56;;;;;;;5.77;3.50;;;7.10;99.90;;;;;;5006789;28;20084;-77
2023/04/20 05:19:22;;;;;;;4.93;3.30;;;7.10;99.90;;;;;;5028160;28;20046;-76
2023/04/20 05:21:48;;;;;;;5.10;3.63;;;7.10;99.90;;;;;;4992763;28;21407;-76
2023/04/20 05:24:13;;;;;;;6.30;3.37;;;7.20;99.90;;;;;;4969958;28;20045;-76
2023/04/20 05:26:39;;;;;;;4.83;3.40;;;7.20;99.90;;;;;;4985430;28;20057;-75
2023/04/20 05:29:05;;;;;;;8.80;3.70;;;7.20;99.90;;;;;;4993324;28;20042;-77
2023/04/20 05:31:32;;;;;;;4.90;3.40;;;7.20;99.90;;;;;;5007723;28;20052;-77
2023/04/20 05:33:58;;;;;;;4.87;3.30;;;7.20;99.90;;;;;;5008384;28;20068;-76
2023/04/20 05:36:24;;;;;;;5.87;3.33;;;7.20;99.90;;;;;;5007349;28;20482;-76
2023/04/20 05:38:49;;;;;;;4.67;3.07;;;7.20;99.90;;;;;;5005297;28;20056;-76
2023/04/20 05:41:15;;;;;;;5.23;3.70;;;7.20;99.90;;;;;;5021251;28;20064;-78
2023/04/20 05:43:41;;;;;;;7.53;3.30;;;7.20;99.90;;;;;;5030959;28;20041;-77
2023/04/20 05:46:06;;;;;;;5.23;2.97;;;7.10;99.90;;;;;;5031243;28;20045;-77
2023/04/20 05:48:32;;;;;;;7.40;3.00;;;7.10;99.90;;;;;;5028663;28;20045;-77
2023/04/20 05:50:58;;;;;;;4.33;3.50;;;7.10;99.90;;;;;;5022783;28;20041;-77
2023/04/20 05:53:24;;;;;;;5.97;3.10;;;7.10;99.90;;;;;;4997891;28;20653;-79
2023/04/20 05:55:49;;;;;;;4.70;3.00;;;7.10;99.90;;;;;;5002951;28;20535;-77
2023/04/20 05:58:16;;;;;;;6.53;3.40;;;7.10;99.90;;;;;;5030911;28;20064;-76
2023/04/20 06:00:41;;;;;;;3.90;3.17;;;7.10;99.90;;;;;;5019068;28;20121;-77
2023/04/20 06:03:07;;;;;;;3.73;3.33;;;7.10;99.90;;;;;;5012176;28;20128;-78
2023/04/20 06:05:33;;;;;;;6.90;3.40;;;7.10;99.90;;;;;;5003022;28;20045;-76
2023/04/20 06:07:58;;;;;;;4.53;3.20;;;7.10;99.90;;;;;;5023275;28;20561;-76
2023/04/20 06:10:24;;;;;;;5.10;3.33;;;7.10;99.90;;;;;;5001224;28;20385;-76
2023/04/20 06:12:50;;;;;;;5.40;3.93;;;7.10;99.90;;;;;;4987379;28;20137;-76
2023/04/20 06:15:16;;;;;;;5.03;3.43;;;7.00;99.90;;;;;;5000185;28;20046;-76
2023/04/20 06:17:41;;;;;;;4.83;3.50;;;7.00;99.90;;;;;;5028494;28;20067;-77
2023/04/20 06:20:09;;;;;;;5.50;3.63;;;6.90;99.90;;;;;;5001734;28;20124;-77
2023/04/20 06:22:35;;;;;;;5.03;3.50;;;6.90;99.90;;;;;;5029775;28;20037;-76
2023/04/20 06:25:01;;;;;;;7.07;3.60;;;6.90;99.90;;;;;;5009722;28;20053;-77
2023/04/20 06:27:27;;;;;;;7.07;4.00;;;6.80;99.90;;;;;;5001023;28;20110;-77
2023/04/20 06:29:53;;;;;;;5.20;3.73;;;6.80;99.90;;;;;;5013235;28;20132;-77
2023/04/20 06:32:19;;;;;;;5.20;3.63;;;6.70;99.90;;;;;;5027563;28;20050;-77
2023/04/20 06:34:46;;;;;;;4.47;3.70;;;6.60;99.90;;;;;;5002244;28;20042;-77
2023/04/20 06:37:12;;;;;;;6.73;4.30;;;6.60;99.90;;;;;;5029628;28;20077;-77
2023/04/20 06:39:38;;;;;;;7.47;3.90;;;6.50;99.90;;;;;;4991893;28;20093;-77
2023/04/20 06:42:03;;;;;;;7.17;4.30;;;6.50;99.90;;;;;;4999782;28;20038;-77
2023/04/20 06:44:29;;;;;;;6.30;4.03;;;6.40;99.90;;;;;;5007847;28;20073;-78
2023/04/20 06:46:55;;;;;;;6.93;3.97;;;6.40;99.90;;;;;;4985136;28;20050;-78
2023/04/20 06:49:20;;;;;;;5.63;3.80;;;6.30;99.90;;;;;;5007483;28;20049;-78
2023/04/20 06:51:46;;;;;;;7.93;3.90;;;6.20;99.90;;;;;;5010220;28;20052;-78
2023/04/20 06:54:12;;;;;;;6.40;4.30;;;6.20;99.90;;;;;;5013574;28;20077;-78
2023/04/20 06:56:37;;;;;;;6.73;4.30;;;6.20;99.90;;;;;;5011061;28;20053;-78
2023/04/20 06:59:03;;;;;;;6.63;4.27;;;6.10;99.90;;;;;;5010906;28;20132;-77
2023/04/20 07:01:29;;;;;;;7.80;4.73;;;6.20;99.90;;;;;;5013876;28;20477;-77
2023/04/20 07:03:55;;;;;;;9.73;5.10;;;6.10;99.90;;;;;;5004755;28;20121;-77
2023/04/20 07:06:21;;;;;;;7.30;5.13;;;6.10;99.90;;;;;;5025350;28;20129;-78
2023/04/20 07:08:46;;;;;;;6.90;4.80;;;6.10;99.90;;;;;;5023342;28;20041;-80
2023/04/20 07:11:12;;;;;;;8.70;5.00;;;6.00;99.90;;;;;;5002440;28;20049;-78
2023/04/20 07:13:38;;;;;;;7.73;5.07;;;6.00;99.90;;;;;;5030106;28;20412;-78
2023/04/20 07:16:04;;;;;;;7.27;5.23;;;6.00;99.90;;;;;;5011806;28;20401;-77
2023/04/20 07:18:30;;;;;;;7.40;5.10;;;6.00;99.90;;;;;;5019177;28;20481;-79
2023/04/20 07:20:55;;;;;;;7.77;5.60;;;6.00;99.90;;;;;;5029650;28;20045;-77
2023/04/20 07:23:21;;;;;;;8.50;5.60;;;6.00;99.90;;;;;;4996632;28;20096;-78
2023/04/20 07:25:47;;;;;;;8.60;5.40;;;6.00;99.90;;;;;;5013516;28;20695;-78
2023/04/20 07:28:13;;;;;;;9.97;5.70;;;6.00;99.90;;;;;;4990336;28;20097;-78
2023/04/20 07:30:38;;;;;;;7.03;5.10;;;6.00;99.90;;;;;;5018350;28;20071;-78
2023/04/20 07:33:04;;;;;;;10.13;5.40;;;6.00;99.90;;;;;;5018330;28;20141;-78
2023/04/20 07:35:30;;;;;;;8.93;5.50;;;6.00;99.90;;;;;;5021322;28;20034;-80
2023/04/20 07:37:55;;;;;;;9.77;5.77;;;6.10;99.90;;;;;;5018945;28;20109;-78
2023/04/20 07:40:21;;;;;;;10.00;6.10;;;6.10;99.90;;;;;;5006787;28;20037;-78
2023/04/20 07:42:47;;;;;;;10.33;6.13;;;6.20;99.90;;;;;;5028473;28;20037;-78
2023/04/20 07:45:13;;;;;;;8.50;5.80;;;6.30;99.90;;;;;;5029679;28;20459;-78
2023/04/20 07:47:39;;;;;;;9.47;5.70;;;6.40;99.90;;;;;;5021366;28;20088;-79
2023/04/20 07:50:06;;;;;;;8.57;5.93;;;6.40;99.90;;;;;;4998302;28;20079;-78
2023/04/20 07:52:32;;;;;;;8.30;6.57;;;6.40;99.90;;;;;;5027415;28;20046;-77
2023/04/20 07:54:58;;;;;;;10.17;6.57;;;6.50;99.90;;;;;;4999715;28;20037;-78
2023/04/20 07:57:25;;;;;;;12.50;6.40;;;6.50;99.90;;;;;;5026862;28;20049;-79
2023/04/20 07:59:51;;;;;;;11.47;6.00;;;6.50;99.90;;;;;;5007723;28;20057;-78
2023/04/20 08:02:17;;;;;;;10.87;5.77;;;6.60;99.90;;;;;;5028352;28;20045;-78
2023/04/20 08:04:45;;;;;;;10.23;6.60;;;6.60;99.90;;;;;;5012756;28;20513;-77
2023/04/20 08:07:11;;;;;;;11.67;6.23;;;6.60;99.90;;;;;;5025429;28;20052;-78
2023/04/20 08:09:37;;;;;;;9.63;5.90;;;6.60;99.90;;;;;;5012900;28;20033;-79
2023/04/20 08:12:04;;;;;;;11.17;6.37;;;6.70;99.90;;;;;;5012452;28;20042;-77
2023/04/20 08:14:29;;;;;;;13.40;6.07;;;6.80;99.90;;;;;;5021668;28;20045;-78
2023/04/20 08:16:55;;;;;;;8.63;5.97;;;6.90;99.90;;;;;;5014580;28;20071;-77
2023/04/20 08:19:21;;;;;;;9.37;5.90;;;6.90;99.90;;;;;;5028339;28;20045;-77
2023/04/20 08:21:47;;;;;;;10.27;6.23;;;6.90;99.90;;;;;;4999752;28;20033;-77
2023/04/20 08:24:13;;;;;;;12.33;6.00;;;7.00;99.90;;;;;;4990002;28;20129;-78
2023/04/20 08:26:39;;;;;;;11.83;6.33;;;7.00;99.90;;;;;;5029494;28;20072;-79
2023/04/20 08:29:05;;;;;;;8.87;6.10;;;7.10;99.90;;;;;;5007011;28;20042;-78
2023/04/20 08:31:31;;;;;;;9.77;6.30;;;7.10;99.90;;;;;;4997352;28;20041;-79
2023/04/20 08:33:57;;;;;;;10.43;6.20;;;7.00;99.90;;;;;;5025183;28;20392;-77
2023/04/20 08:36:23;;;;;;;8.00;5.87;;;7.00;99.90;;;;;;4974012;28;20046;-78
2023/04/20 08:39:13;;;;;;;11.03;6.37;;;7.00;99.90;;;;;;5000308;28;20051;-79
2023/04/20 08:41:39;;;;;;;8.60;6.23;;;7.10;99.90;;;;;;5016360;28;20052;-77
2023/04/20 08:44:06;;;;;;;10.53;6.60;;;7.00;99.90;;;;;;5023261;28;20029;-77
2023/04/20 08:46:33;;;;;;;9.93;6.47;;;7.00;99.90;;;;;;5014656;28;20053;-77
2023/04/20 08:49:01;;;;;;;10.77;6.70;;;7.10;99.90;;;;;;5018601;28;20041;-79
2023/04/20 08:51:27;;;;;;;10.33;6.73;;;7.10;99.90;;;;;;5003181;28;20046;-77
2023/04/20 08:53:55;;;;;;;12.33;6.33;;;7.10;99.90;;;;;;4999288;28;20048;-77
2023/04/20 08:56:34;;;;;;;9.17;6.93;;;7.10;99.90;;;;;;5032165;28;20560;-77
2023/04/20 08:59:02;;;;;;;11.00;6.33;;;7.20;99.90;;;;;;4996472;28;20065;-78
2023/04/20 09:01:28;;;;;;;10.93;7.00;;;7.20;99.90;;;;;;5032117;28;20054;-77
2023/04/20 09:03:54;;;;;;;11.67;7.00;;;7.20;99.90;;;;;;5023476;28;20070;-77
2023/04/20 09:06:21;;;;;;;8.90;6.43;;;7.20;99.90;;;;;;5002633;28;20080;-77
2023/04/20 09:08:48;;;;;;;10.57;6.47;;;7.20;99.90;;;;;;5014621;28;20060;-77
2023/04/20 09:11:28;;;;;;;11.97;6.93;;;7.30;99.90;;;;;;5009152;28;20044;-78
2023/04/20 09:14:11;;;;;;;10.60;6.67;;;7.30;99.90;;;;;;5032435;28;20132;-77
2023/04/20 09:16:38;;;;;;;10.27;6.27;;;7.30;99.90;;;;;;5026127;28;20037;-78
2023/04/20 09:19:04;;;;;;;8.37;6.80;;;7.30;99.90;;;;;;5008217;28;20091;-77
2023/04/20 09:21:31;;;;;;;10.50;7.20;;;7.20;99.90;;;;;;5029785;28;20107;-77
2023/04/20 09:24:00;;;;;;;11.90;6.80;;;7.30;99.90;;;;;;5000484;28;20037;-77
2023/04/20 09:26:30;;;;;;;10.60;6.97;;;7.40;99.90;;;;;;5013233;28;20045;-77
2023/04/20 09:28:55;;;;;;;9.63;7.03;;;7.50;99.90;;;;;;5031736;28;20124;-78
2023/04/20 09:31:22;;;;;;;10.17;7.47;;;7.60;99.90;;;;;;5006592;28;20470;-77
2023/04/20 09:34:08;;;;;;;12.33;7.10;;;7.60;99.90;;;;;;5016596;28;20077;-77
2023/04/20 09:36:45;;;;;;;12.03;7.10;;;7.60;99.90;;;;;;5011966;28;20037;-78
2023/04/20 09:39:13;;;;;;;12.10;7.60;;;7.60;99.90;;;;;;5029549;28;20045;-77
2023/04/20 09:41:40;;;;;;;10.97;7.40;;;7.60;99.90;;;;;;5015429;28;20126;-78
2023/04/20 09:44:07;;;;;;;12.03;8.20;;;7.60;99.90;;;;;;5013800;28;20072;-77
2023/04/20 09:46:35;;;;;;;11.93;7.67;;;7.60;99.90;;;;;;5026687;28;20045;-77
2023/04/20 09:49:06;;;;;;;10.17;7.80;;;7.60;99.90;;;;;;5011767;28;20136;-77
2023/04/20 09:51:34;;;;;;;11.40;7.83;;;7.70;99.90;;;;;;5031278;28;20045;-77
2023/04/20 09:54:02;;;;;;;11.47;7.40;;;7.70;99.90;;;;;;5014588;28;20095;-77
2023/04/20 09:56:29;;;;;;;10.50;7.80;;;7.90;99.90;;;;;;5022223;28;20449;-78
2023/04/20 09:58:56;;;;;;;11.27;7.87;;;7.90;99.90;;;;;;5003018;28;20070;-80
2023/04/20 10:01:23;;;;;;;8.67;7.37;;;7.90;99.90;;;;;;5011368;28;20105;-77
2023/04/20 10:03:50;;;;;;;14.37;7.77;;;8.00;99.90;;;;;;5020349;28;20073;-77
2023/04/20 10:06:20;;;;;;;10.37;7.80;;;8.00;99.90;;;;;;5012595;28;20045;-77
2023/04/20 10:08:47;;;;;;;11.20;7.97;;;8.00;99.90;;;;;;4998849;28;20076;-79
2023/04/20 10:11:24;;;;;;;15.13;8.23;;;7.90;99.90;;;;;;5023924;28;20049;-77
2023/04/20 10:13:50;;;;;;;10.47;8.47;;;7.90;99.90;;;;;;4992877;28;20049;-80
2023/04/20 10:16:17;;;;;;;10.27;8.47;;;7.90;99.90;;;;;;5014270;28;20132;-77
2023/04/20 10:18:54;;;;;;;13.93;8.63;;;7.90;99.90;;;;;;5025709;28;20034;-77
2023/04/20 10:21:20;;;;;;;10.80;8.47;;;8.00;99.90;;;;;;5026291;28;20044;-77
2023/04/20 10:23:51;;;;;;;10.63;8.33;;;8.00;99.90;;;;;;4990453;28;20362;-77
2023/04/20 10:26:16;;;;;;;10.23;8.03;;;8.10;99.90;;;;;;5030830;28;20458;-78
2023/04/20 10:28:43;;;;;;;12.50;8.87;;;8.10;99.90;;;;;;5013011;28;20072;-77
2023/04/20 10:31:12;;;;;;;11.67;9.57;;;8.20;99.90;;;;;;5024079;28;20041;-78
2023/04/20 10:33:54;;;;;;;15.27;9.37;;;8.20;99.90;;;;;;5014233;28;20045;-77
2023/04/20 10:36:30;;;;;;;;;;;8.20;99.90;;;;;;5003962;28;20046;-78
2023/04/20 10:38:57;;;;;;;12.87;9.23;;;8.20;99.90;;;;;;5025718;28;19921;-77
2023/04/20 10:41:26;;;;;;;13.77;10.37;;;8.30;99.90;;;;;;5030835;28;20079;-78
2023/04/20 10:43:51;;;;;;;14.47;11.43;;;8.30;99.90;;;;;;5011928;28;20045;-78
2023/04/20 10:46:23;;;;;;;13.10;9.60;;;8.30;99.90;;;;;;5006078;28;20048;-77
2023/04/20 10:48:53;;;;;;;15.90;10.93;;;8.40;99.90;;;;;;5025666;28;20120;-79
2023/04/20 10:51:19;;;;;;;13.83;10.33;;;8.40;99.90;;;;;;5030495;28;20057;-77
2023/04/20 10:54:07;;;;;;;12.73;10.70;;;8.50;99.90;;;;;;5022907;28;20033;-80
2023/04/20 10:56:41;;;;;;;14.37;11.23;;;8.70;99.90;;;;;;4991269;28;20057;-77
2023/04/20 10:59:08;;;;;;;16.30;11.43;;;8.90;99.90;;;;;;5000950;28;20466;-77
2023/04/20 11:01:34;;;;;;;16.07;11.40;;;9.00;99.90;;;;;;5022874;28;20441;-77
2023/04/20 11:04:00;;;;;;;14.53;10.50;;;9.10;99.90;;;;;;5022246;28;20105;-77
2023/04/20 11:06:27;;;;;;;12.60;10.70;;;9.00;99.90;;;;;;5025988;28;20508;-78
2023/04/20 11:08:53;;;;;;;15.40;11.37;;;9.00;99.90;;;;;;5013713;28;20053;-78
2023/04/20 11:11:20;;;;;;;12.57;10.10;;;8.90;99.90;;;;;;5029644;28;20046;-78
2023/04/20 11:13:47;;;;;;;13.93;11.13;;;8.90;99.90;;;;;;5024162;28;20041;-78
2023/04/20 11:16:15;;;;;;;15.17;12.47;;;8.80;99.90;;;;;;5023981;28;20091;-78
2023/04/20 11:18:52;;;;;;;15.13;11.40;;;8.70;99.90;;;;;;5019156;28;20380;-77
2023/04/20 11:21:22;;;;;;;15.20;11.47;;;8.80;99.90;;;;;;5029618;28;20049;-80
2023/04/20 11:23:48;;;;;;;13.90;10.33;;;8.80;99.90;;;;;;5028623;28;20041;-77
2023/04/20 11:26:14;;;;;;;15.63;11.23;;;9.10;99.90;;;;;;5008708;28;20473;-78
2023/04/20 11:28:53;;;;;;;13.77;10.37;;;9.60;99.90;;;;;;5013645;28;20428;-78
2023/04/20 11:31:19;;;;;;;16.93;10.90;;;9.80;99.90;;;;;;5029512;28;20041;-79
2023/04/20 11:33:45;;;;;;;12.50;10.17;;;10.00;99.90;;;;;;5021591;28;20057;-79
2023/04/20 11:36:19;;;;;;;15.63;10.67;;;10.10;99.90;;;;;;5024512;28;20201;-80
2023/04/20 11:38:45;;;;;;;13.67;10.43;;;10.20;99.90;;;;;;4994881;28;20037;-79
2023/04/20 11:41:10;;;;;;;12.33;10.10;;;10.20;99.90;;;;;;4989118;28;20069;-81
2023/04/20 11:43:36;;;;;;;17.07;10.63;;;10.10;99.90;;;;;;5004446;28;20042;-79
2023/04/20 11:46:02;;;;;;;15.73;10.80;;;10.20;99.90;;;;;;4987386;28;20042;-78
2023/04/20 11:48:31;;;;;;;12.10;10.07;;;10.30;99.90;;;;;;5006161;28;20046;-78
2023/04/20 11:50:57;;;;;;;14.43;10.67;;;10.50;99.90;;;;;;5001887;28;20053;-78
2023/04/20 11:53:23;;;;;;;13.83;10.50;;;10.70;99.90;;;;;;5029522;28;20481;-78
2023/04/20 11:55:49;;;;;;;16.07;10.90;;;10.90;99.90;;;;;;5013228;28;20052;-78
2023/04/20 11:58:14;;;;;;;17.93;11.77;;;10.80;99.90;;;;;;4994745;28;20117;-81
2023/04/20 12:00:40;;;;;;;18.47;12.07;;;11.00;99.90;;;;;;4987895;28;20064;-79
2023/04/20 12:03:06;;;;;;;13.57;10.93;;;10.90;99.90;;;;;;5012121;28;20166;-79
2023/04/20 12:05:31;;;;;;;12.37;10.47;;;10.90;99.90;;;;;;4986451;28;20387;-79
2023/04/20 12:07:57;;;;;;;16.63;11.30;;;11.00;99.90;;;;;;5011120;28;20042;-79
2023/04/20 12:10:23;;;;;;;14.17;10.13;;;11.00;99.90;;;;;;4961367;28;20449;-78
2023/04/20 12:12:49;;;;;;;16.07;10.33;;;11.00;99.90;;;;;;5000195;28;20505;-80
2023/04/20 12:15:14;;;;;;;11.50;9.07;;;11.00;99.90;;;;;;5013544;28;20524;-80
2023/04/20 12:17:40;;;;;;;11.00;9.33;;;10.80;99.90;;;;;;5006438;28;20037;-79
2023/04/20 12:20:07;;;;;;;12.73;10.07;;;10.50;99.90;;;;;;5014079;28;20061;-79
2023/04/20 12:22:33;;;;;;;12.60;9.80;;;10.50;99.90;;;;;;4963237;28;20052;-79
2023/04/20 12:24:59;;;;;;;15.00;9.97;;;10.50;99.90;;;;;;4985226;28;20038;-80
2023/04/20 12:27:25;;;;;;;14.93;10.27;;;10.50;99.90;;;;;;5013980;28;20044;-81
2023/04/20 12:29:51;;;;;;;12.03;10.07;;;10.80;99.90;;;;;;5002106;28;20088;-81
2023/04/20 12:32:17;;;;;;;14.30;10.40;;;10.90;99.90;;;;;;5015628;28;20038;-80
2023/04/20 12:34:42;;;;;;;16.43;10.67;;;11.00;99.90;;;;;;5015700;28;20045;-80
2023/04/20 12:37:08;;;;;;;11.53;9.70;;;11.20;99.90;;;;;;5014901;28;20126;-79
2023/04/20 12:39:34;;;;;;;14.30;10.67;;;11.10;99.90;;;;;;5015281;28;20057;-79
2023/04/20 12:42:01;;;;;;;13.90;9.77;;;11.20;99.90;;;;;;4995678;28;20120;-82
2023/04/20 12:44:27;;;;;;;15.13;10.90;;;11.10;99.90;;;;;;4992227;28;20041;-80
2023/04/20 12:46:52;;;;;;;15.20;10.97;;;11.10;99.90;;;;;;4996692;28;20038;-78